sensor_id;sensor_type;location;lat;lon;timestamp;P1;durP1;ratioP1;P2;durP2;ratioP2
37633;SDS011;32048;49.902;22.508;2023-07-31T00:00:16;6.00;;;3.03;;
37633;SDS011;32048;49.902;22.508;2023-07-31T00:03:02;6.18;;;3.25;;
37633;SDS011;32048;49.902;22.508;2023-07-31T00:05:30;4.63;;;3.42;;
37633;SDS011;32048;49.902;22.508;2023-07-31T00:07:57;4.88;;;3.40;;
37633;SDS011;32048;49.902;22.508;2023-07-31T00:10:24;6.05;;;3.50;;
37633;SDS011;32048;49.902;22.508;2023-07-31T00:12:51;3.83;;;3.33;;
37633;SDS011;32048;49.902;22.508;2023-07-31T00:15:18;4.95;;;3.22;;
37633;SDS011;32048;49.902;22.508;2023-07-31T00:17:45;4.20;;;2.88;;
37633;SDS011;32048;49.902;22.508;2023-07-31T00:20:13;7.25;;;4.20;;
37633;SDS011;32048;49.902;22.508;2023-07-31T00:22:40;6.65;;;3.35;;
37633;SDS011;32048;49.902;22.508;2023-07-31T00:25:08;4.18;;;3.50;;
37633;SDS011;32048;49.902;22.508;2023-07-31T00:27:35;5.10;;;3.53;;
37633;SDS011;32048;49.902;22.508;2023-07-31T00:30:02;6.05;;;3.60;;
37633;SDS011;32048;49.902;22.508;2023-07-31T00:32:29;4.03;;;3.40;;
37633;SDS011;32048;49.902;22.508;2023-07-31T00:34:57;4.30;;;3.22;;
37633;SDS011;32048;49.902;22.508;2023-07-31T00:37:23;5.25;;;2.88;;
37633;SDS011;32048;49.902;22.508;2023-07-31T00:39:51;6.10;;;3.60;;
37633;SDS011;32048;49.902;22.508;2023-07-31T00:42:18;4.88;;;3.17;;
37633;SDS011;32048;49.902;22.508;2023-07-31T00:44:45;6.60;;;3.40;;
37633;SDS011;32048;49.902;22.508;2023-07-31T00:47:12;8.52;;;3.90;;
37633;SDS011;32048;49.902;22.508;2023-07-31T00:49:39;4.43;;;3.55;;
37633;SDS011;32048;49.902;22.508;2023-07-31T00:52:06;5.35;;;3.70;;
37633;SDS011;32048;49.902;22.508;2023-07-31T00:54:34;6.00;;;3.90;;
37633;SDS011;32048;49.902;22.508;2023-07-31T00:57:01;3.97;;;3.58;;
37633;SDS011;32048;49.902;22.508;2023-07-31T00:59:29;3.95;;;3.55;;
37633;SDS011;32048;49.902;22.508;2023-07-31T01:01:56;5.93;;;3.72;;
37633;SDS011;32048;49.902;22.508;2023-07-31T01:04:23;4.72;;;3.85;;
37633;SDS011;32048;49.902;22.508;2023-07-31T01:10:04;6.00;;;3.80;;
37633;SDS011;32048;49.902;22.508;2023-07-31T01:12:53;5.28;;;3.42;;
37633;SDS011;32048;49.902;22.508;2023-07-31T01:15:21;3.85;;;3.40;;
37633;SDS011;32048;49.902;22.508;2023-07-31T01:17:48;4.88;;;3.35;;
37633;SDS011;32048;49.902;22.508;2023-07-31T01:20:20;4.03;;;3.55;;
37633;SDS011;32048;49.902;22.508;2023-07-31T01:28:01;5.70;;;3.70;;
37633;SDS011;32048;49.902;22.508;2023-07-31T01:30:34;6.43;;;3.80;;
37633;SDS011;32048;49.902;22.508;2023-07-31T01:33:07;8.68;;;4.05;;
37633;SDS011;32048;49.902;22.508;2023-07-31T01:35:36;3.87;;;3.47;;
37633;SDS011;32048;49.902;22.508;2023-07-31T01:38:04;5.25;;;3.97;;
37633;SDS011;32048;49.902;22.508;2023-07-31T01:40:32;4.10;;;3.70;;
37633;SDS011;32048;49.902;22.508;2023-07-31T01:42:58;4.57;;;3.10;;
37633;SDS011;32048;49.902;22.508;2023-07-31T01:45:26;5.20;;;3.67;;
37633;SDS011;32048;49.902;22.508;2023-07-31T01:47:53;5.40;;;4.03;;
37633;SDS011;32048;49.902;22.508;2023-07-31T01:50:20;5.50;;;3.42;;
37633;SDS011;32048;49.902;22.508;2023-07-31T01:52:47;4.05;;;3.42;;
37633;SDS011;32048;49.902;22.508;2023-07-31T01:55:14;4.20;;;3.58;;
37633;SDS011;32048;49.902;22.508;2023-07-31T01:57:41;5.35;;;3.40;;
37633;SDS011;32048;49.902;22.508;2023-07-31T02:00:08;4.80;;;3.85;;
37633;SDS011;32048;49.902;22.508;2023-07-31T02:02:35;5.82;;;3.55;;
37633;SDS011;32048;49.902;22.508;2023-07-31T02:05:03;6.72;;;4.22;;
37633;SDS011;32048;49.902;22.508;2023-07-31T02:07:30;6.97;;;4.50;;
37633;SDS011;32048;49.902;22.508;2023-07-31T02:09:58;4.30;;;3.90;;
37633;SDS011;32048;49.902;22.508;2023-07-31T02:12:25;4.95;;;4.13;;
37633;SDS011;32048;49.902;22.508;2023-07-31T02:14:52;5.75;;;3.70;;
37633;SDS011;32048;49.902;22.508;2023-07-31T02:17:19;6.22;;;3.95;;
37633;SDS011;32048;49.902;22.508;2023-07-31T02:19:46;7.35;;;4.00;;
37633;SDS011;32048;49.902;22.508;2023-07-31T02:22:13;5.28;;;3.95;;
37633;SDS011;32048;49.902;22.508;2023-07-31T02:24:40;7.07;;;4.60;;
37633;SDS011;32048;49.902;22.508;2023-07-31T02:27:07;7.35;;;4.53;;
37633;SDS011;32048;49.902;22.508;2023-07-31T02:29:34;7.38;;;4.30;;
37633;SDS011;32048;49.902;22.508;2023-07-31T02:32:02;5.00;;;4.22;;
37633;SDS011;32048;49.902;22.508;2023-07-31T02:34:29;4.53;;;3.78;;
37633;SDS011;32048;49.902;22.508;2023-07-31T02:36:56;7.93;;;4.05;;
37633;SDS011;32048;49.902;22.508;2023-07-31T02:39:23;6.43;;;3.97;;
37633;SDS011;32048;49.902;22.508;2023-07-31T02:41:50;6.90;;;3.95;;
37633;SDS011;32048;49.902;22.508;2023-07-31T02:44:17;4.20;;;3.80;;
37633;SDS011;32048;49.902;22.508;2023-07-31T02:46:44;5.03;;;3.60;;
37633;SDS011;32048;49.902;22.508;2023-07-31T02:49:12;5.35;;;3.97;;
37633;SDS011;32048;49.902;22.508;2023-07-31T02:51:39;5.68;;;4.20;;
37633;SDS011;32048;49.902;22.508;2023-07-31T02:54:06;6.97;;;4.50;;
37633;SDS011;32048;49.902;22.508;2023-07-31T02:56:33;5.82;;;4.13;;
37633;SDS011;32048;49.902;22.508;2023-07-31T02:59:00;4.80;;;4.18;;
37633;SDS011;32048;49.902;22.508;2023-07-31T03:01:27;4.93;;;4.15;;
37633;SDS011;32048;49.902;22.508;2023-07-31T03:06:49;6.22;;;4.13;;
37633;SDS011;32048;49.902;22.508;2023-07-31T03:09:17;5.88;;;4.75;;
37633;SDS011;32048;49.902;22.508;2023-07-31T03:11:44;7.03;;;4.47;;
37633;SDS011;32048;49.902;22.508;2023-07-31T03:14:11;4.78;;;4.28;;
37633;SDS011;32048;49.902;22.508;2023-07-31T03:16:38;6.70;;;4.38;;
37633;SDS011;32048;49.902;22.508;2023-07-31T03:19:06;4.40;;;3.75;;
37633;SDS011;32048;49.902;22.508;2023-07-31T03:21:33;7.18;;;4.25;;
37633;SDS011;32048;49.902;22.508;2023-07-31T03:24:00;6.43;;;4.50;;
37633;SDS011;32048;49.902;22.508;2023-07-31T03:26:27;5.85;;;4.13;;
37633;SDS011;32048;49.902;22.508;2023-07-31T03:28:54;7.88;;;4.38;;
37633;SDS011;32048;49.902;22.508;2023-07-31T03:31:21;6.95;;;4.47;;
37633;SDS011;32048;49.902;22.508;2023-07-31T03:33:48;9.82;;;3.97;;
37633;SDS011;32048;49.902;22.508;2023-07-31T03:36:15;5.28;;;3.47;;
37633;SDS011;32048;49.902;22.508;2023-07-31T03:38:42;5.47;;;3.95;;
37633;SDS011;32048;49.902;22.508;2023-07-31T03:41:09;6.43;;;3.97;;
37633;SDS011;32048;49.902;22.508;2023-07-31T03:43:37;5.00;;;4.10;;
37633;SDS011;32048;49.902;22.508;2023-07-31T03:46:04;7.78;;;4.18;;
37633;SDS011;32048;49.902;22.508;2023-07-31T03:48:31;4.57;;;3.78;;
37633;SDS011;32048;49.902;22.508;2023-07-31T03:50:58;7.40;;;4.15;;
37633;SDS011;32048;49.902;22.508;2023-07-31T03:53:26;6.80;;;4.03;;
37633;SDS011;32048;49.902;22.508;2023-07-31T03:55:53;6.25;;;3.70;;
37633;SDS011;32048;49.902;22.508;2023-07-31T03:58:20;5.53;;;3.92;;
37633;SDS011;32048;49.902;22.508;2023-07-31T04:00:47;5.63;;;3.78;;
37633;SDS011;32048;49.902;22.508;2023-07-31T04:03:14;6.32;;;4.13;;
37633;SDS011;32048;49.902;22.508;2023-07-31T04:05:41;6.90;;;4.07;;
37633;SDS011;32048;49.902;22.508;2023-07-31T04:08:08;6.68;;;3.85;;
37633;SDS011;32048;49.902;22.508;2023-07-31T04:10:35;4.75;;;3.75;;
37633;SDS011;32048;49.902;22.508;2023-07-31T04:13:02;4.78;;;3.88;;
37633;SDS011;32048;49.902;22.508;2023-07-31T04:15:29;6.45;;;3.90;;
37633;SDS011;32048;49.902;22.508;2023-07-31T04:17:57;5.10;;;3.80;;
37633;SDS011;32048;49.902;22.508;2023-07-31T04:20:23;5.35;;;3.63;;
37633;SDS011;32048;49.902;22.508;2023-07-31T04:22:51;4.50;;;3.53;;
37633;SDS011;32048;49.902;22.508;2023-07-31T04:25:18;4.55;;;3.00;;
37633;SDS011;32048;49.902;22.508;2023-07-31T04:27:45;5.07;;;3.35;;
37633;SDS011;32048;49.902;22.508;2023-07-31T04:30:12;4.43;;;3.55;;
37633;SDS011;32048;49.902;22.508;2023-07-31T04:32:39;6.68;;;3.33;;
37633;SDS011;32048;49.902;22.508;2023-07-31T04:35:06;3.50;;;3.05;;
37633;SDS011;32048;49.902;22.508;2023-07-31T04:37:33;5.72;;;3.33;;
37633;SDS011;32048;49.902;22.508;2023-07-31T04:40:00;4.05;;;2.97;;
37633;SDS011;32048;49.902;22.508;2023-07-31T04:42:27;4.32;;;2.70;;
37633;SDS011;32048;49.902;22.508;2023-07-31T04:44:54;4.45;;;3.10;;
37633;SDS011;32048;49.902;22.508;2023-07-31T04:47:22;3.90;;;2.72;;
37633;SDS011;32048;49.902;22.508;2023-07-31T04:49:48;2.80;;;2.55;;
37633;SDS011;32048;49.902;22.508;2023-07-31T04:52:16;3.53;;;2.65;;
37633;SDS011;32048;49.902;22.508;2023-07-31T04:54:42;3.85;;;2.95;;
37633;SDS011;32048;49.902;22.508;2023-07-31T04:57:10;3.33;;;2.60;;
37633;SDS011;32048;49.902;22.508;2023-07-31T04:59:37;3.10;;;2.30;;
37633;SDS011;32048;49.902;22.508;2023-07-31T05:02:04;3.60;;;2.80;;
37633;SDS011;32048;49.902;22.508;2023-07-31T05:04:31;5.00;;;2.58;;
37633;SDS011;32048;49.902;22.508;2023-07-31T05:06:58;4.57;;;2.47;;
37633;SDS011;32048;49.902;22.508;2023-07-31T05:09:25;2.92;;;2.28;;
37633;SDS011;32048;49.902;22.508;2023-07-31T05:11:53;7.38;;;2.58;;
37633;SDS011;32048;49.902;22.508;2023-07-31T05:14:19;5.10;;;2.60;;
37633;SDS011;32048;49.902;22.508;2023-07-31T05:16:47;4.22;;;2.60;;
37633;SDS011;32048;49.902;22.508;2023-07-31T05:19:14;4.18;;;2.92;;
37633;SDS011;32048;49.902;22.508;2023-07-31T05:21:41;3.83;;;3.25;;
37633;SDS011;32048;49.902;22.508;2023-07-31T05:24:08;6.47;;;3.50;;
37633;SDS011;32048;49.902;22.508;2023-07-31T05:26:36;4.68;;;2.72;;
37633;SDS011;32048;49.902;22.508;2023-07-31T05:29:04;4.47;;;2.40;;
37633;SDS011;32048;49.902;22.508;2023-07-31T05:31:31;5.82;;;2.35;;
37633;SDS011;32048;49.902;22.508;2023-07-31T05:33:59;3.40;;;2.10;;
37633;SDS011;32048;49.902;22.508;2023-07-31T05:36:26;5.18;;;2.30;;
37633;SDS011;32048;49.902;22.508;2023-07-31T05:38:53;3.65;;;2.50;;
37633;SDS011;32048;49.902;22.508;2023-07-31T05:41:20;4.53;;;2.30;;
37633;SDS011;32048;49.902;22.508;2023-07-31T05:43:47;3.38;;;2.38;;
37633;SDS011;32048;49.902;22.508;2023-07-31T05:46:15;2.80;;;2.17;;
37633;SDS011;32048;49.902;22.508;2023-07-31T05:48:42;2.70;;;2.20;;
37633;SDS011;32048;49.902;22.508;2023-07-31T05:51:09;5.68;;;2.20;;
37633;SDS011;32048;49.902;22.508;2023-07-31T05:53:36;4.13;;;2.50;;
37633;SDS011;32048;49.902;22.508;2023-07-31T05:56:07;3.60;;;2.45;;
37633;SDS011;32048;49.902;22.508;2023-07-31T05:58:36;3.30;;;2.15;;
37633;SDS011;32048;49.902;22.508;2023-07-31T06:01:06;3.50;;;2.38;;
37633;SDS011;32048;49.902;22.508;2023-07-31T06:03:34;4.10;;;2.50;;
37633;SDS011;32048;49.902;22.508;2023-07-31T06:06:01;5.20;;;2.47;;
37633;SDS011;32048;49.902;22.508;2023-07-31T06:08:28;6.07;;;2.60;;
37633;SDS011;32048;49.902;22.508;2023-07-31T06:10:55;3.80;;;2.25;;
37633;SDS011;32048;49.902;22.508;2023-07-31T06:13:22;5.03;;;2.60;;
37633;SDS011;32048;49.902;22.508;2023-07-31T06:15:49;6.72;;;2.50;;
37633;SDS011;32048;49.902;22.508;2023-07-31T06:18:22;5.65;;;2.83;;
37633;SDS011;32048;49.902;22.508;2023-07-31T06:20:55;4.53;;;2.43;;
37633;SDS011;32048;49.902;22.508;2023-07-31T06:23:22;4.57;;;2.63;;
37633;SDS011;32048;49.902;22.508;2023-07-31T06:25:50;4.63;;;2.77;;
37633;SDS011;32048;49.902;22.508;2023-07-31T06:28:17;4.03;;;2.50;;
37633;SDS011;32048;49.902;22.508;2023-07-31T06:30:48;4.05;;;2.33;;
37633;SDS011;32048;49.902;22.508;2023-07-31T06:33:18;3.42;;;2.40;;
37633;SDS011;32048;49.902;22.508;2023-07-31T06:35:46;4.18;;;2.80;;
37633;SDS011;32048;49.902;22.508;2023-07-31T06:38:13;3.95;;;3.00;;
37633;SDS011;32048;49.902;22.508;2023-07-31T06:40:40;4.72;;;2.80;;
37633;SDS011;32048;49.902;22.508;2023-07-31T06:43:07;3.50;;;2.78;;
37633;SDS011;32048;49.902;22.508;2023-07-31T06:45:35;5.75;;;2.65;;
37633;SDS011;32048;49.902;22.508;2023-07-31T06:48:03;3.40;;;2.37;;
37633;SDS011;32048;49.902;22.508;2023-07-31T06:50:31;3.47;;;2.40;;
37633;SDS011;32048;49.902;22.508;2023-07-31T06:52:58;5.88;;;2.95;;
37633;SDS011;32048;49.902;22.508;2023-07-31T06:55:25;9.02;;;2.60;;
37633;SDS011;32048;49.902;22.508;2023-07-31T06:57:53;6.45;;;3.08;;
37633;SDS011;32048;49.902;22.508;2023-07-31T07:02:49;5.10;;;2.50;;
37633;SDS011;32048;49.902;22.508;2023-07-31T07:05:17;5.15;;;2.20;;
37633;SDS011;32048;49.902;22.508;2023-07-31T07:07:44;2.75;;;2.22;;
37633;SDS011;32048;49.902;22.508;2023-07-31T07:10:11;3.75;;;2.42;;
37633;SDS011;32048;49.902;22.508;2023-07-31T07:12:38;3.40;;;2.22;;
37633;SDS011;32048;49.902;22.508;2023-07-31T07:15:06;4.43;;;2.60;;
37633;SDS011;32048;49.902;22.508;2023-07-31T07:17:33;3.35;;;2.30;;
37633;SDS011;32048;49.902;22.508;2023-07-31T07:20:00;6.25;;;2.47;;
37633;SDS011;32048;49.902;22.508;2023-07-31T07:22:27;4.35;;;2.30;;
37633;SDS011;32048;49.902;22.508;2023-07-31T07:24:56;2.92;;;2.30;;
37633;SDS011;32048;49.902;22.508;2023-07-31T07:27:23;4.55;;;2.25;;
37633;SDS011;32048;49.902;22.508;2023-07-31T07:29:50;3.70;;;2.40;;
37633;SDS011;32048;49.902;22.508;2023-07-31T07:32:19;4.32;;;2.33;;
37633;SDS011;32048;49.902;22.508;2023-07-31T07:34:48;3.83;;;2.70;;
37633;SDS011;32048;49.902;22.508;2023-07-31T07:37:15;3.57;;;2.33;;
37633;SDS011;32048;49.902;22.508;2023-07-31T07:39:43;2.80;;;2.40;;
37633;SDS011;32048;49.902;22.508;2023-07-31T07:42:10;3.53;;;2.27;;
37633;SDS011;32048;49.902;22.508;2023-07-31T07:44:37;3.65;;;2.50;;
37633;SDS011;32048;49.902;22.508;2023-07-31T07:47:04;2.50;;;2.20;;
37633;SDS011;32048;49.902;22.508;2023-07-31T07:49:33;3.92;;;2.58;;
37633;SDS011;32048;49.902;22.508;2023-07-31T07:52:02;4.93;;;2.22;;
37633;SDS011;32048;49.902;22.508;2023-07-31T07:54:30;5.28;;;3.20;;
37633;SDS011;32048;49.902;22.508;2023-07-31T07:56:57;4.67;;;2.60;;
37633;SDS011;32048;49.902;22.508;2023-07-31T07:59:25;6.28;;;2.97;;
37633;SDS011;32048;49.902;22.508;2023-07-31T08:01:52;5.68;;;2.80;;
37633;SDS011;32048;49.902;22.508;2023-07-31T08:04:19;5.20;;;2.70;;
37633;SDS011;32048;49.902;22.508;2023-07-31T08:06:46;4.63;;;2.75;;
37633;SDS011;32048;49.902;22.508;2023-07-31T08:09:13;6.05;;;2.65;;
37633;SDS011;32048;49.902;22.508;2023-07-31T08:11:40;5.18;;;2.78;;
37633;SDS011;32048;49.902;22.508;2023-07-31T08:14:07;9.65;;;2.72;;
37633;SDS011;32048;49.902;22.508;2023-07-31T08:16:34;5.03;;;3.15;;
37633;SDS011;32048;49.902;22.508;2023-07-31T08:19:02;2.50;;;2.30;;
37633;SDS011;32048;49.902;22.508;2023-07-31T08:21:29;8.23;;;4.88;;
37633;SDS011;32048;49.902;22.508;2023-07-31T08:23:56;2.80;;;2.33;;
37633;SDS011;32048;49.902;22.508;2023-07-31T08:26:23;3.20;;;2.45;;
37633;SDS011;32048;49.902;22.508;2023-07-31T08:28:50;6.18;;;2.65;;
37633;SDS011;32048;49.902;22.508;2023-07-31T08:31:18;3.55;;;2.80;;
37633;SDS011;32048;49.902;22.508;2023-07-31T08:36:12;2.83;;;2.30;;
37633;SDS011;32048;49.902;22.508;2023-07-31T08:38:40;5.25;;;2.47;;
37633;SDS011;32048;49.902;22.508;2023-07-31T08:41:06;9.07;;;2.45;;
37633;SDS011;32048;49.902;22.508;2023-07-31T08:43:34;4.40;;;2.78;;
37633;SDS011;32048;49.902;22.508;2023-07-31T08:46:02;5.03;;;2.30;;
37633;SDS011;32048;49.902;22.508;2023-07-31T08:48:30;3.85;;;2.35;;
37633;SDS011;32048;49.902;22.508;2023-07-31T08:50:58;2.35;;;2.15;;
37633;SDS011;32048;49.902;22.508;2023-07-31T08:53:25;9.53;;;5.03;;
37633;SDS011;32048;49.902;22.508;2023-07-31T08:55:52;3.05;;;2.65;;
37633;SDS011;32048;49.902;22.508;2023-07-31T08:58:21;5.55;;;2.58;;
37633;SDS011;32048;49.902;22.508;2023-07-31T09:00:50;4.72;;;2.30;;
37633;SDS011;32048;49.902;22.508;2023-07-31T09:03:20;2.85;;;2.60;;
37633;SDS011;32048;49.902;22.508;2023-07-31T09:05:49;3.65;;;2.55;;
37633;SDS011;32048;49.902;22.508;2023-07-31T09:08:18;3.28;;;2.50;;
37633;SDS011;32048;49.902;22.508;2023-07-31T09:10:47;4.05;;;2.50;;
37633;SDS011;32048;49.902;22.508;2023-07-31T09:13:16;4.15;;;2.63;;
37633;SDS011;32048;49.902;22.508;2023-07-31T09:15:44;4.20;;;2.47;;
37633;SDS011;32048;49.902;22.508;2023-07-31T09:20:43;3.20;;;2.65;;
37633;SDS011;32048;49.902;22.508;2023-07-31T09:23:12;4.53;;;3.10;;
37633;SDS011;32048;49.902;22.508;2023-07-31T09:25:40;5.05;;;2.72;;
37633;SDS011;32048;49.902;22.508;2023-07-31T09:28:11;4.15;;;2.75;;
37633;SDS011;32048;49.902;22.508;2023-07-31T09:30:46;7.43;;;3.03;;
37633;SDS011;32048;49.902;22.508;2023-07-31T09:33:17;3.50;;;3.17;;
37633;SDS011;32048;49.902;22.508;2023-07-31T09:35:46;10.05;;;7.72;;
37633;SDS011;32048;49.902;22.508;2023-07-31T09:38:15;13.50;;;9.15;;
37633;SDS011;32048;49.902;22.508;2023-07-31T09:40:51;4.18;;;2.90;;
37633;SDS011;32048;49.902;22.508;2023-07-31T09:43:19;4.22;;;3.03;;
37633;SDS011;32048;49.902;22.508;2023-07-31T09:45:47;4.65;;;2.80;;
37633;SDS011;32048;49.902;22.508;2023-07-31T09:48:16;5.07;;;2.92;;
37633;SDS011;32048;49.902;22.508;2023-07-31T09:50:45;3.33;;;3.03;;
37633;SDS011;32048;49.902;22.508;2023-07-31T09:53:13;2.92;;;2.53;;
37633;SDS011;32048;49.902;22.508;2023-07-31T09:55:42;3.58;;;2.47;;
37633;SDS011;32048;49.902;22.508;2023-07-31T09:58:10;3.63;;;2.33;;
37633;SDS011;32048;49.902;22.508;2023-07-31T10:00:39;6.68;;;3.05;;
37633;SDS011;32048;49.902;22.508;2023-07-31T10:03:07;2.55;;;2.22;;
37633;SDS011;32048;49.902;22.508;2023-07-31T10:08:06;3.97;;;2.03;;
37633;SDS011;32048;49.902;22.508;2023-07-31T10:10:36;4.65;;;2.20;;
37633;SDS011;32048;49.902;22.508;2023-07-31T10:13:07;4.80;;;2.40;;
37633;SDS011;32048;49.902;22.508;2023-07-31T10:15:35;2.90;;;2.45;;
37633;SDS011;32048;49.902;22.508;2023-07-31T10:18:05;2.13;;;1.92;;
37633;SDS011;32048;49.902;22.508;2023-07-31T10:20:33;3.28;;;2.30;;
37633;SDS011;32048;49.902;22.508;2023-07-31T10:23:01;2.47;;;2.28;;
37633;SDS011;32048;49.902;22.508;2023-07-31T10:25:28;4.05;;;2.55;;
37633;SDS011;32048;49.902;22.508;2023-07-31T10:27:57;3.00;;;2.58;;
37633;SDS011;32048;49.902;22.508;2023-07-31T10:30:25;2.55;;;2.35;;
37633;SDS011;32048;49.902;22.508;2023-07-31T10:32:56;4.70;;;2.75;;
37633;SDS011;32048;49.902;22.508;2023-07-31T10:37:52;6.10;;;2.80;;
37633;SDS011;32048;49.902;22.508;2023-07-31T10:40:23;5.77;;;3.00;;
37633;SDS011;32048;49.902;22.508;2023-07-31T10:42:57;3.22;;;2.65;;
37633;SDS011;32048;49.902;22.508;2023-07-31T10:48:06;2.35;;;2.15;;
37633;SDS011;32048;49.902;22.508;2023-07-31T10:50:49;3.47;;;2.33;;
37633;SDS011;32048;49.902;22.508;2023-07-31T10:55:58;3.50;;;2.50;;
37633;SDS011;32048;49.902;22.508;2023-07-31T10:58:26;2.53;;;2.25;;
37633;SDS011;32048;49.902;22.508;2023-07-31T11:00:57;2.70;;;2.50;;
37633;SDS011;32048;49.902;22.508;2023-07-31T11:03:26;2.45;;;2.13;;
37633;SDS011;32048;49.902;22.508;2023-07-31T11:06:07;3.60;;;2.33;;
37633;SDS011;32048;49.902;22.508;2023-07-31T11:08:41;2.70;;;2.40;;
37633;SDS011;32048;49.902;22.508;2023-07-31T11:11:13;4.45;;;2.20;;
37633;SDS011;32048;49.902;22.508;2023-07-31T11:16:23;3.28;;;2.20;;
37633;SDS011;32048;49.902;22.508;2023-07-31T11:18:51;2.75;;;2.42;;
37633;SDS011;32048;49.902;22.508;2023-07-31T11:21:21;4.07;;;2.55;;
37633;SDS011;32048;49.902;22.508;2023-07-31T11:23:50;6.15;;;2.60;;
37633;SDS011;32048;49.902;22.508;2023-07-31T11:26:19;3.05;;;2.33;;
37633;SDS011;32048;49.902;22.508;2023-07-31T11:28:47;2.95;;;2.38;;
37633;SDS011;32048;49.902;22.508;2023-07-31T11:31:15;3.65;;;2.70;;
37633;SDS011;32048;49.902;22.508;2023-07-31T11:33:43;6.43;;;3.03;;
37633;SDS011;32048;49.902;22.508;2023-07-31T11:36:17;3.50;;;2.67;;
37633;SDS011;32048;49.902;22.508;2023-07-31T11:38:46;4.85;;;2.95;;
37633;SDS011;32048;49.902;22.508;2023-07-31T11:41:13;3.20;;;2.90;;
37633;SDS011;32048;49.902;22.508;2023-07-31T11:43:43;3.85;;;2.90;;
37633;SDS011;32048;49.902;22.508;2023-07-31T11:46:10;4.40;;;3.20;;
37633;SDS011;32048;49.902;22.508;2023-07-31T11:48:37;4.38;;;3.40;;
37633;SDS011;32048;49.902;22.508;2023-07-31T11:51:05;3.83;;;3.42;;
37633;SDS011;32048;49.902;22.508;2023-07-31T11:56:02;3.15;;;2.85;;
37633;SDS011;32048;49.902;22.508;2023-07-31T11:58:34;5.05;;;2.85;;
37633;SDS011;32048;49.902;22.508;2023-07-31T12:01:02;4.22;;;2.90;;
37633;SDS011;32048;49.902;22.508;2023-07-31T12:03:29;3.27;;;2.97;;
37633;SDS011;32048;49.902;22.508;2023-07-31T12:05:58;5.18;;;2.97;;
37633;SDS011;32048;49.902;22.508;2023-07-31T12:08:44;3.38;;;2.80;;
37633;SDS011;32048;49.902;22.508;2023-07-31T12:11:11;4.03;;;3.05;;
37633;SDS011;32048;49.902;22.508;2023-07-31T12:13:40;4.45;;;3.15;;
37633;SDS011;32048;49.902;22.508;2023-07-31T12:16:07;3.10;;;2.67;;
37633;SDS011;32048;49.902;22.508;2023-07-31T12:18:35;3.70;;;3.00;;
37633;SDS011;32048;49.902;22.508;2023-07-31T12:21:04;5.50;;;2.60;;
37633;SDS011;32048;49.902;22.508;2023-07-31T12:23:33;4.10;;;3.15;;
37633;SDS011;32048;49.902;22.508;2023-07-31T12:28:39;4.85;;;3.00;;
37633;SDS011;32048;49.902;22.508;2023-07-31T12:31:18;9.75;;;2.80;;
37633;SDS011;32048;49.902;22.508;2023-07-31T12:33:48;3.95;;;2.63;;
37633;SDS011;32048;49.902;22.508;2023-07-31T12:36:22;4.13;;;2.90;;
37633;SDS011;32048;49.902;22.508;2023-07-31T12:38:50;4.90;;;2.70;;
37633;SDS011;32048;49.902;22.508;2023-07-31T12:41:18;3.83;;;3.28;;
37633;SDS011;32048;49.902;22.508;2023-07-31T12:43:46;5.65;;;2.53;;
37633;SDS011;32048;49.902;22.508;2023-07-31T12:46:13;4.13;;;2.50;;
37633;SDS011;32048;49.902;22.508;2023-07-31T12:48:41;4.10;;;2.83;;
37633;SDS011;32048;49.902;22.508;2023-07-31T12:51:08;5.07;;;2.78;;
37633;SDS011;32048;49.902;22.508;2023-07-31T12:53:35;3.88;;;2.55;;
37633;SDS011;32048;49.902;22.508;2023-07-31T12:56:02;4.88;;;3.85;;
37633;SDS011;32048;49.902;22.508;2023-07-31T12:58:30;5.82;;;2.70;;
37633;SDS011;32048;49.902;22.508;2023-07-31T13:00:57;4.10;;;2.70;;
37633;SDS011;32048;49.902;22.508;2023-07-31T13:03:24;4.15;;;2.63;;
37633;SDS011;32048;49.902;22.508;2023-07-31T13:05:52;4.15;;;2.63;;
37633;SDS011;32048;49.902;22.508;2023-07-31T13:08:20;2.72;;;2.47;;
37633;SDS011;32048;49.902;22.508;2023-07-31T13:10:47;2.58;;;2.20;;
37633;SDS011;32048;49.902;22.508;2023-07-31T13:13:14;3.38;;;2.58;;
37633;SDS011;32048;49.902;22.508;2023-07-31T13:15:41;2.85;;;2.60;;
37633;SDS011;32048;49.902;22.508;2023-07-31T13:18:09;3.28;;;2.90;;
37633;SDS011;32048;49.902;22.508;2023-07-31T13:20:36;5.32;;;2.45;;
37633;SDS011;32048;49.902;22.508;2023-07-31T13:23:03;4.03;;;2.45;;
37633;SDS011;32048;49.902;22.508;2023-07-31T13:25:30;2.65;;;2.17;;
37633;SDS011;32048;49.902;22.508;2023-07-31T13:27:57;4.00;;;2.65;;
37633;SDS011;32048;49.902;22.508;2023-07-31T13:30:28;4.25;;;2.58;;
37633;SDS011;32048;49.902;22.508;2023-07-31T13:32:56;3.95;;;2.17;;
37633;SDS011;32048;49.902;22.508;2023-07-31T13:35:23;2.38;;;2.17;;
37633;SDS011;32048;49.902;22.508;2023-07-31T13:37:50;3.65;;;2.47;;
37633;SDS011;32048;49.902;22.508;2023-07-31T13:40:17;2.40;;;2.17;;
37633;SDS011;32048;49.902;22.508;2023-07-31T13:42:44;3.08;;;2.20;;
37633;SDS011;32048;49.902;22.508;2023-07-31T13:45:13;4.38;;;2.40;;
37633;SDS011;32048;49.902;22.508;2023-07-31T13:47:40;2.92;;;2.20;;
37633;SDS011;32048;49.902;22.508;2023-07-31T13:50:07;3.35;;;2.40;;
37633;SDS011;32048;49.902;22.508;2023-07-31T13:52:35;10.40;;;2.25;;
37633;SDS011;32048;49.902;22.508;2023-07-31T13:55:02;4.55;;;2.67;;
37633;SDS011;32048;49.902;22.508;2023-07-31T13:57:29;2.45;;;2.25;;
37633;SDS011;32048;49.902;22.508;2023-07-31T13:59:56;3.47;;;2.45;;
37633;SDS011;32048;49.902;22.508;2023-07-31T14:02:24;5.10;;;2.83;;
37633;SDS011;32048;49.902;22.508;2023-07-31T14:04:50;2.50;;;2.30;;
37633;SDS011;32048;49.902;22.508;2023-07-31T14:07:18;7.72;;;2.58;;
37633;SDS011;32048;49.902;22.508;2023-07-31T14:09:45;3.35;;;2.40;;
37633;SDS011;32048;49.902;22.508;2023-07-31T14:12:12;2.42;;;2.22;;
37633;SDS011;32048;49.902;22.508;2023-07-31T14:14:50;5.03;;;2.40;;
37633;SDS011;32048;49.902;22.508;2023-07-31T14:17:17;2.33;;;2.05;;
37633;SDS011;32048;49.902;22.508;2023-07-31T14:19:44;3.15;;;2.17;;
37633;SDS011;32048;49.902;22.508;2023-07-31T14:22:12;11.70;;;2.63;;
37633;SDS011;32048;49.902;22.508;2023-07-31T14:24:39;5.15;;;2.72;;
37633;SDS011;32048;49.902;22.508;2023-07-31T14:27:06;4.35;;;2.38;;
37633;SDS011;32048;49.902;22.508;2023-07-31T14:29:33;4.13;;;2.47;;
37633;SDS011;32048;49.902;22.508;2023-07-31T14:32:00;5.43;;;2.75;;
37633;SDS011;32048;49.902;22.508;2023-07-31T14:34:28;4.10;;;2.72;;
37633;SDS011;32048;49.902;22.508;2023-07-31T14:36:56;4.90;;;2.70;;
37633;SDS011;32048;49.902;22.508;2023-07-31T14:39:23;4.28;;;2.58;;
37633;SDS011;32048;49.902;22.508;2023-07-31T14:41:50;4.07;;;3.05;;
37633;SDS011;32048;49.902;22.508;2023-07-31T14:44:17;3.60;;;2.30;;
37633;SDS011;32048;49.902;22.508;2023-07-31T14:46:44;3.38;;;1.85;;
37633;SDS011;32048;49.902;22.508;2023-07-31T14:49:11;2.28;;;1.77;;
37633;SDS011;32048;49.902;22.508;2023-07-31T14:51:38;2.00;;;1.80;;
37633;SDS011;32048;49.902;22.508;2023-07-31T14:54:05;1.80;;;1.65;;
37633;SDS011;32048;49.902;22.508;2023-07-31T14:56:32;13.93;;;7.55;;
37633;SDS011;32048;49.902;22.508;2023-07-31T14:58:59;3.85;;;2.53;;
37633;SDS011;32048;49.902;22.508;2023-07-31T15:01:26;2.92;;;2.40;;
37633;SDS011;32048;49.902;22.508;2023-07-31T15:03:53;3.30;;;2.17;;
37633;SDS011;32048;49.902;22.508;2023-07-31T15:06:21;4.57;;;2.53;;
37633;SDS011;32048;49.902;22.508;2023-07-31T15:08:48;5.22;;;4.00;;
37633;SDS011;32048;49.902;22.508;2023-07-31T15:11:15;3.95;;;3.35;;
37633;SDS011;32048;49.902;22.508;2023-07-31T15:13:43;4.28;;;2.60;;